createdAt,value
2019-03-02T00:01:37.861Z,4.50
2019-03-02T00:04:10.125Z,4.50
2019-03-02T00:06:38.719Z,4.50
2019-03-02T00:09:08.484Z,4.40
2019-03-02T00:11:38.132Z,4.40
2019-03-02T00:14:07.805Z,4.40
2019-03-02T00:16:39.772Z,4.30
2019-03-02T00:19:08.720Z,4.30
2019-03-02T00:21:38.336Z,4.30
2019-03-02T00:24:07.918Z,4.30
2019-03-02T00:26:37.551Z,4.20
2019-03-02T00:29:07.667Z,4.20
2019-03-02T00:31:38.418Z,4.20
2019-03-02T00:34:08.039Z,4.20
2019-03-02T00:36:37.646Z,4.10
2019-03-02T00:39:09.158Z,4.20
2019-03-02T00:41:42.077Z,4.10
2019-03-02T00:44:10.031Z,4.10
2019-03-02T00:46:39.651Z,4.10
2019-03-02T00:49:09.253Z,4.10
2019-03-02T00:51:39.008Z,4.10
2019-03-02T00:54:11.375Z,4.10
2019-03-02T00:56:42.548Z,4.10
2019-03-02T00:59:11.153Z,4.10
2019-03-02T01:01:40.734Z,4.00
2019-03-02T01:04:10.490Z,3.90
2019-03-02T01:06:40.112Z,3.90
2019-03-02T01:09:11.759Z,3.90
2019-03-02T01:11:41.232Z,3.80
2019-03-02T01:14:10.846Z,3.80
2019-03-02T01:16:40.440Z,3.90
2019-03-02T01:19:10.071Z,3.90
2019-03-02T01:21:41.290Z,3.90
2019-03-02T01:24:11.019Z,3.80
2019-03-02T01:26:40.600Z,3.80
2019-03-02T01:29:10.197Z,3.80
2019-03-02T01:31:40.656Z,3.80
2019-03-02T01:34:11.111Z,3.70
2019-03-02T01:36:40.722Z,3.70
2019-03-02T01:39:10.298Z,3.70
2019-03-02T01:41:39.941Z,3.60
2019-03-02T01:44:12.734Z,3.60
2019-03-02T01:46:41.006Z,3.60
2019-03-02T01:49:11.331Z,3.70
2019-03-02T01:51:40.938Z,3.70
2019-03-02T01:54:10.530Z,3.70
2019-03-02T01:56:41.333Z,3.60
2019-03-02T01:59:11.348Z,3.50
2019-03-02T02:01:41.000Z,3.50
2019-03-02T02:04:10.615Z,3.40
2019-03-02T02:06:42.797Z,3.40
2019-03-02T02:09:11.454Z,3.30
2019-03-02T02:11:41.406Z,3.30
2019-03-02T02:14:10.975Z,3.30
2019-03-02T02:16:41.792Z,3.30
2019-03-02T02:19:11.555Z,3.30
2019-03-02T02:21:41.162Z,3.30
2019-03-02T02:24:10.742Z,3.30
2019-03-02T02:26:40.407Z,3.30
2019-03-02T02:29:09.998Z,3.40
2019-03-02T02:31:44.181Z,3.30
2019-03-02T02:34:10.872Z,3.20
2019-03-02T02:36:40.510Z,3.20
2019-03-02T02:39:14.604Z,3.30
2019-03-02T02:41:44.166Z,3.30
2019-03-02T02:44:13.714Z,3.30
2019-03-02T02:46:43.370Z,3.30
2019-03-02T02:49:13.011Z,3.30
2019-03-02T02:51:44.536Z,3.30
2019-03-02T02:54:19.021Z,3.30
2019-03-02T02:56:45.084Z,3.30
2019-03-02T02:59:14.746Z,3.20
2019-03-02T03:01:44.366Z,3.30
2019-03-02T03:04:13.953Z,3.30
2019-03-02T03:06:43.522Z,3.30
2019-03-02T03:09:24.885Z,3.30
2019-03-02T03:11:54.460Z,3.30
2019-03-02T03:14:24.039Z,3.30
2019-03-02T03:16:54.208Z,3.30
2019-03-02T03:19:26.109Z,3.40
2019-03-02T03:21:56.379Z,3.30
2019-03-02T03:24:26.040Z,3.40
2019-03-02T03:26:55.651Z,3.40
2019-03-02T03:29:25.228Z,3.40
2019-03-02T03:32:07.658Z,3.30
2019-03-02T03:34:30.103Z,3.40
2019-03-02T03:36:57.400Z,3.40
2019-03-02T03:39:26.985Z,3.40
2019-03-02T03:41:56.582Z,3.30
2019-03-02T03:44:27.769Z,3.30
2019-03-02T03:47:00.774Z,3.20
2019-03-02T03:49:29.994Z,3.20
2019-03-02T03:52:03.995Z,3.20
2019-03-02T03:54:31.353Z,3.20
2019-03-02T03:57:00.945Z,3.10
2019-03-02T03:59:30.542Z,3.20
2019-03-02T04:02:00.195Z,3.10
2019-03-02T04:04:30.684Z,3.10
2019-03-02T04:07:01.362Z,3.10
2019-03-02T04:09:31.686Z,3.10
2019-03-02T04:12:01.276Z,3.10
2019-03-02T04:14:30.859Z,3.10
2019-03-02T04:17:01.659Z,3.00
2019-03-02T04:19:34.250Z,3.00
2019-03-02T04:22:06.398Z,3.00
2019-03-02T04:24:40.020Z,3.00
2019-03-02T04:27:11.017Z,3.00
2019-03-02T04:29:48.992Z,3.10
2019-03-02T04:32:10.883Z,3.00
2019-03-02T04:34:40.513Z,3.00
2019-03-02T04:37:10.145Z,3.00
2019-03-02T04:39:39.752Z,3.10
2019-03-02T04:42:11.731Z,3.10
2019-03-02T04:44:40.643Z,3.00
2019-03-02T04:47:10.198Z,3.00
2019-03-02T04:49:39.823Z,3.00
2019-03-02T04:52:11.604Z,3.00
2019-03-02T04:54:40.649Z,3.00
2019-03-02T04:57:10.289Z,3.00
2019-03-02T04:59:39.878Z,3.00
2019-03-02T05:02:09.517Z,2.90
2019-03-02T05:04:39.133Z,3.00
2019-03-02T05:07:08.799Z,3.00
2019-03-02T05:09:38.362Z,2.90
2019-03-02T05:12:08.051Z,2.90
2019-03-02T05:14:40.263Z,2.90
2019-03-02T05:17:08.857Z,2.90
2019-03-02T05:19:38.479Z,2.90
2019-03-02T05:22:08.058Z,2.90
2019-03-02T05:24:40.463Z,2.90
2019-03-02T05:27:08.944Z,3.00
2019-03-02T05:29:38.511Z,2.90
2019-03-02T05:32:08.077Z,2.90
2019-03-02T05:34:39.783Z,2.90
2019-03-02T05:37:08.972Z,2.90
2019-03-02T05:39:38.504Z,2.90
2019-03-02T05:42:10.388Z,2.80
2019-03-02T05:44:39.414Z,2.80
2019-03-02T05:47:09.007Z,2.80
2019-03-02T05:49:38.649Z,2.80
2019-03-02T05:52:08.226Z,2.80
2019-03-02T05:54:38.598Z,2.80
2019-03-02T05:57:09.176Z,2.80
2019-03-02T05:59:38.798Z,2.70
2019-03-02T06:02:08.371Z,2.80
2019-03-02T06:04:37.961Z,2.80
2019-03-02T06:07:07.585Z,2.70
2019-03-02T06:09:37.233Z,2.70
2019-03-02T06:12:06.855Z,2.70
2019-03-02T06:14:36.456Z,2.60
2019-03-02T06:17:06.050Z,2.60
2019-03-02T06:19:35.765Z,2.60
2019-03-02T06:22:05.352Z,2.60
2019-03-02T06:24:37.688Z,2.60
2019-03-02T06:27:07.809Z,2.70
2019-03-02T06:29:38.198Z,2.70
2019-03-02T06:32:07.892Z,2.70
2019-03-02T06:34:37.750Z,2.60
2019-03-02T06:37:07.374Z,2.70
2019-03-02T06:39:36.955Z,2.70
2019-03-02T06:42:09.845Z,2.80
2019-03-02T06:44:37.866Z,2.70
2019-03-02T06:47:07.520Z,2.70
2019-03-02T06:49:37.385Z,2.60
2019-03-02T06:52:07.329Z,2.80
2019-03-02T06:54:37.158Z,2.90
2019-03-02T06:57:06.776Z,3.00
2019-03-02T06:59:39.320Z,3.00
2019-03-02T07:02:07.684Z,2.90
2019-03-02T07:04:37.282Z,2.90
2019-03-02T07:07:06.873Z,2.80
2019-03-02T07:09:36.442Z,2.80
2019-03-02T07:12:09.302Z,2.70
2019-03-02T07:14:37.322Z,2.70
2019-03-02T07:17:07.007Z,2.90
2019-03-02T07:19:56.233Z,2.90
2019-03-02T07:22:25.862Z,2.90
2019-03-02T07:24:55.429Z,3.00
2019-03-02T07:27:26.368Z,3.00
2019-03-02T07:29:56.474Z,2.90
2019-03-02T07:32:26.006Z,2.90
2019-03-02T07:34:55.644Z,3.00
2019-03-02T07:37:25.270Z,3.10
2019-03-02T07:39:54.882Z,4.10
2019-03-02T07:42:24.739Z,5.00
2019-03-02T07:44:54.963Z,5.80
2019-03-02T07:47:25.571Z,6.40
2019-03-02T07:49:55.269Z,6.70
2019-03-02T07:52:24.923Z,7.00
2019-03-02T07:54:58.362Z,6.90
2019-03-02T07:57:25.764Z,6.50
2019-03-02T07:59:55.389Z,6.10
2019-03-02T08:02:25.796Z,5.80
2019-03-02T08:04:56.724Z,5.50
2019-03-02T08:07:26.342Z,5.50
2019-03-02T08:09:58.989Z,6.20
2019-03-02T08:12:27.176Z,6.40
2019-03-02T08:14:56.918Z,6.30
2019-03-02T08:17:26.591Z,6.20
2019-03-02T08:19:56.175Z,6.80
2019-03-02T08:22:26.023Z,6.70
2019-03-02T08:24:55.653Z,6.40
2019-03-02T08:27:25.289Z,6.00
2019-03-02T08:29:57.304Z,5.90
2019-03-02T08:32:26.353Z,5.70
2019-03-02T08:34:56.030Z,5.70
2019-03-02T08:37:26.683Z,5.60
2019-03-02T08:39:57.022Z,5.60
2019-03-02T08:42:26.891Z,5.60
2019-03-02T08:44:56.531Z,5.50
2019-03-02T08:47:26.129Z,5.50
2019-03-02T08:49:56.124Z,5.50
2019-03-02T08:52:25.933Z,5.50
2019-03-02T08:54:57.058Z,5.60
2019-03-02T08:57:27.288Z,5.60
2019-03-02T08:59:56.904Z,5.60
2019-03-02T09:02:26.481Z,5.60
2019-03-02T09:04:56.271Z,5.70
2019-03-02T09:07:25.950Z,6.00
2019-03-02T09:09:55.530Z,6.50
2019-03-02T09:12:25.132Z,7.10
2019-03-02T09:14:54.770Z,7.10
2019-03-02T09:17:24.473Z,7.10
2019-03-02T09:19:55.802Z,7.00
2019-03-02T09:22:25.854Z,6.80
2019-03-02T09:24:55.524Z,6.80
2019-03-02T09:27:25.112Z,6.80
2019-03-02T09:29:55.832Z,6.70
2019-03-02T09:32:26.328Z,6.70
2019-03-02T09:34:56.034Z,6.60
2019-03-02T09:37:25.691Z,6.60
2019-03-02T09:39:55.286Z,6.60
2019-03-02T09:42:24.928Z,6.60
2019-03-02T09:44:54.510Z,6.70
2019-03-02T09:47:24.092Z,6.70
2019-03-02T09:49:53.710Z,7.00
2019-03-02T09:52:23.314Z,7.00
2019-03-02T09:54:53.005Z,6.90
2019-03-02T09:57:22.679Z,7.00
2019-03-02T09:59:52.298Z,7.10
2019-03-02T10:02:21.842Z,7.20
2019-03-02T10:04:51.490Z,7.30
2019-03-02T10:07:23.544Z,7.30
2019-03-02T10:09:52.386Z,7.50
2019-03-02T10:12:22.040Z,7.60
2019-03-02T10:14:51.755Z,7.70
2019-03-02T10:17:21.356Z,7.70
2019-03-02T10:19:51.039Z,7.80
2019-03-02T10:22:23.388Z,7.80
2019-03-02T10:24:53.270Z,7.90
2019-03-02T10:27:23.188Z,7.90
2019-03-02T10:29:52.783Z,7.90
2019-03-02T10:32:22.395Z,8.00
2019-03-02T10:34:52.011Z,8.10
2019-03-02T10:37:22.559Z,8.30
2019-03-02T10:39:52.739Z,8.40
2019-03-02T10:42:22.340Z,8.50
2019-03-02T10:44:53.695Z,8.60
2019-03-02T10:47:23.171Z,8.90
2019-03-02T10:49:52.746Z,9.10
2019-03-02T10:52:22.445Z,9.20
2019-03-02T10:54:52.063Z,9.50
2019-03-02T10:57:21.693Z,9.70
2019-03-02T10:59:51.751Z,10.00
2019-03-02T11:02:22.703Z,10.20
2019-03-02T11:05:26.575Z,10.40
2019-03-02T11:08:04.604Z,10.60
2019-03-02T11:10:53.307Z,11.00
2019-03-02T11:13:55.273Z,11.30
2019-03-02T11:16:47.781Z,11.60
2019-03-02T11:19:37.589Z,12.00
2019-03-02T11:22:15.159Z,12.50
2019-03-02T11:25:10.124Z,12.90
2019-03-02T11:28:04.729Z,13.20
2019-03-02T11:30:48.043Z,13.50
2019-03-02T11:33:35.412Z,13.90
2019-03-02T11:36:26.688Z,14.20
2019-03-02T11:39:05.363Z,14.60
2019-03-02T11:41:49.709Z,14.90
2019-03-02T11:44:38.202Z,15.10
2019-03-02T11:47:26.712Z,15.10
2019-03-02T11:50:03.944Z,15.00
2019-03-02T11:53:04.614Z,15.20
2019-03-02T11:55:58.950Z,15.30
2019-03-02T11:58:46.299Z,15.70
2019-03-02T12:01:49.890Z,16.30
2019-03-02T12:04:41.422Z,16.70
2019-03-02T12:07:35.790Z,17.00
2019-03-02T12:10:25.111Z,17.40
2019-03-02T12:13:19.702Z,17.70
2019-03-02T12:16:22.159Z,18.00
2019-03-02T12:18:59.811Z,18.10
2019-03-02T12:21:43.951Z,18.40
2019-03-02T12:24:32.443Z,18.60
2019-03-02T12:27:22.381Z,18.80
2019-03-02T12:30:11.451Z,19.10
2019-03-02T12:33:03.106Z,19.30
2019-03-02T12:36:00.562Z,19.50
2019-03-02T12:38:48.068Z,19.60
2019-03-02T12:41:37.273Z,19.60
2019-03-02T12:44:20.890Z,19.30
2019-03-02T12:47:07.513Z,19.20
2019-03-02T12:49:47.098Z,19.20
2019-03-02T12:52:51.782Z,19.10
2019-03-02T12:55:59.527Z,19.10
2019-03-02T12:58:48.024Z,18.80
2019-03-02T13:01:28.706Z,18.60
2019-03-02T13:04:09.272Z,18.30
2019-03-02T13:06:56.190Z,18.20
2019-03-02T13:09:44.665Z,18.20
2019-03-02T13:12:42.833Z,18.20
2019-03-02T13:15:35.585Z,18.00
2019-03-02T13:18:29.925Z,17.70
2019-03-02T13:21:24.567Z,17.70
2019-03-02T13:24:14.779Z,17.80
2019-03-02T13:27:16.332Z,17.60
2019-03-02T13:30:03.475Z,17.60
2019-03-02T13:32:56.021Z,17.90
2019-03-02T13:36:00.477Z,18.20
2019-03-02T13:38:53.467Z,18.20
2019-03-02T13:41:48.295Z,18.40
2019-03-02T13:44:43.414Z,18.70
2019-03-02T13:47:31.225Z,19.40
2019-03-02T13:50:20.217Z,19.80
2019-03-02T13:53:01.864Z,20.10
2019-03-02T13:55:36.570Z,19.90
2019-03-02T13:58:18.170Z,19.90
2019-03-02T14:00:54.242Z,20.30
2019-03-02T14:03:51.063Z,20.50
2019-03-02T14:06:45.027Z,20.80
2019-03-02T14:09:32.449Z,21.40
2019-03-02T14:12:23.699Z,21.50
2019-03-02T14:15:17.319Z,21.90
2019-03-02T14:18:17.649Z,21.90
2019-03-02T14:21:07.705Z,22.00
2019-03-02T14:23:48.502Z,22.20
2019-03-02T14:26:39.810Z,22.40
2019-03-02T14:29:18.351Z,22.40
2019-03-02T14:31:59.653Z,22.20
2019-03-02T14:35:00.286Z,22.20
2019-03-02T14:37:34.482Z,22.40
2019-03-02T14:40:20.933Z,22.70
2019-03-02T14:43:24.857Z,22.80
2019-03-02T14:46:23.274Z,22.30
2019-03-02T14:49:24.383Z,21.50
2019-03-02T14:52:20.591Z,20.80
2019-03-02T14:55:07.754Z,20.20
2019-03-02T14:57:56.719Z,19.90
2019-03-02T15:00:44.612Z,19.80
2019-03-02T15:03:45.186Z,19.50
2019-03-02T15:06:40.596Z,19.30
2019-03-02T15:09:22.396Z,19.10
2019-03-02T15:12:12.544Z,19.30
2019-03-02T15:14:58.685Z,19.60
2019-03-02T15:17:53.455Z,19.50
2019-03-02T15:20:36.726Z,19.30
2019-03-02T15:23:29.080Z,19.20
2019-03-02T15:26:06.335Z,19.20
2019-03-02T15:28:59.974Z,19.00
2019-03-02T15:31:45.223Z,18.80
2019-03-02T15:34:39.667Z,18.50
2019-03-02T15:37:29.565Z,18.30
2019-03-02T15:40:06.614Z,18.10
2019-03-02T15:43:07.411Z,17.80
2019-03-02T15:45:43.888Z,17.60
2019-03-02T15:48:35.731Z,17.40
2019-03-02T15:51:15.771Z,17.30
2019-03-02T15:54:07.345Z,17.10
2019-03-02T15:56:48.282Z,17.00
2019-03-02T15:59:55.200Z,16.90
2019-03-02T16:02:52.905Z,16.80
2019-03-02T16:05:47.790Z,16.60
2019-03-02T16:08:31.843Z,16.50
2019-03-02T16:11:35.677Z,16.40
2019-03-02T16:14:26.278Z,16.30
2019-03-02T16:17:09.261Z,16.20
2019-03-02T16:19:46.692Z,16.00
2019-03-02T16:22:34.235Z,15.80
2019-03-02T16:25:19.431Z,15.70
2019-03-02T16:28:14.149Z,15.50
2019-03-02T16:30:53.141Z,15.30
2019-03-02T16:33:47.051Z,15.10
2019-03-02T16:36:50.684Z,15.00
2019-03-02T16:39:42.617Z,14.90
2019-03-02T16:42:35.481Z,14.70
2019-03-02T16:45:19.920Z,14.50
2019-03-02T16:48:11.771Z,14.40
2019-03-02T16:51:06.711Z,14.20
2019-03-02T16:54:01.483Z,14.10
2019-03-02T16:56:53.870Z,13.90
2019-03-02T16:59:45.791Z,13.80
2019-03-02T17:02:47.142Z,13.60
2019-03-02T17:05:42.392Z,13.40
2019-03-02T17:08:31.122Z,13.30
2019-03-02T17:11:22.538Z,13.10
2019-03-02T17:14:20.242Z,13.00
2019-03-02T17:17:11.944Z,12.90
2019-03-02T17:19:49.259Z,12.80
2019-03-02T17:22:32.454Z,12.70
2019-03-02T17:25:19.321Z,12.70
2019-03-02T17:28:20.195Z,12.60
2019-03-02T17:31:13.954Z,12.40
2019-03-02T17:34:14.734Z,12.30
2019-03-02T17:37:10.772Z,12.20
2019-03-02T17:40:01.169Z,12.10
2019-03-02T17:42:47.442Z,12.10
2019-03-02T17:45:42.102Z,12.00
2019-03-02T17:48:48.722Z,11.90
2019-03-02T17:51:39.963Z,11.80
2019-03-02T17:54:28.524Z,11.70
2019-03-02T17:57:14.019Z,11.70
2019-03-02T18:00:10.883Z,11.70
2019-03-02T18:02:59.226Z,11.60
2019-03-02T18:05:53.644Z,11.60
2019-03-02T18:08:48.642Z,11.50
2019-03-02T18:11:50.383Z,11.40
2019-03-02T18:14:43.641Z,11.30
2019-03-02T18:17:32.162Z,11.20
2019-03-02T18:20:01.778Z,11.20
2019-03-02T18:22:31.458Z,11.10
2019-03-02T18:25:01.085Z,11.00
2019-03-02T18:27:33.298Z,11.00
2019-03-02T18:30:06.119Z,11.00
2019-03-02T18:32:34.110Z,10.90
2019-03-02T18:35:05.483Z,10.90
2019-03-02T18:37:35.140Z,10.80
2019-03-02T18:40:05.043Z,10.70
2019-03-02T18:42:34.880Z,10.50
2019-03-02T18:45:04.741Z,10.40
2019-03-02T18:47:34.406Z,10.30
2019-03-02T18:50:41.644Z,10.30
2019-03-02T18:53:11.268Z,10.30
2019-03-02T18:55:40.877Z,10.30
2019-03-02T18:58:10.558Z,10.20
2019-03-02T19:00:43.958Z,10.20
2019-03-02T19:03:13.622Z,10.30
2019-03-02T19:05:46.182Z,10.80
2019-03-02T19:08:14.995Z,10.90
2019-03-02T19:10:45.782Z,10.70
2019-03-02T19:13:15.462Z,10.40
2019-03-02T19:15:53.529Z,10.40
2019-03-02T19:18:17.163Z,10.20
2019-03-02T19:20:47.334Z,10.10
2019-03-02T19:23:16.992Z,10.00
2019-03-02T19:25:46.633Z,10.00
2019-03-02T19:28:16.284Z,9.80
2019-03-02T19:30:45.895Z,9.70
2019-03-02T19:33:15.539Z,9.60
2019-03-02T19:35:45.172Z,9.50
2019-03-02T19:38:14.875Z,9.40
2019-03-02T19:40:44.523Z,9.30
2019-03-02T19:43:14.164Z,9.20
2019-03-02T19:45:43.817Z,9.20
2019-03-02T19:48:13.490Z,9.10
2019-03-02T19:50:43.164Z,9.10
2019-03-02T19:53:12.777Z,9.10
2019-03-02T19:55:42.475Z,9.10
2019-03-02T19:58:12.122Z,9.00
2019-03-02T20:00:42.145Z,8.80
2019-03-02T20:03:12.153Z,8.70
2019-03-02T20:05:41.775Z,8.60
2019-03-02T20:08:11.446Z,8.50
2019-03-02T20:10:41.045Z,8.50
2019-03-02T20:13:10.809Z,8.50
2019-03-02T20:15:40.633Z,8.40
2019-03-02T20:18:10.259Z,8.40
2019-03-02T20:20:39.877Z,8.40
2019-03-02T20:23:09.629Z,8.30
2019-03-02T20:25:39.663Z,8.20
2019-03-02T20:28:09.331Z,8.20
2019-03-02T20:30:39.076Z,8.20
2019-03-02T20:33:08.761Z,8.20
2019-03-02T20:35:38.387Z,8.20
2019-03-02T20:38:08.114Z,8.20
2019-03-02T20:40:37.743Z,8.10
2019-03-02T20:43:07.396Z,8.10
2019-03-02T20:45:37.033Z,8.00
2019-03-02T20:48:06.740Z,7.90
2019-03-02T20:50:36.407Z,7.90
2019-03-02T20:53:06.007Z,7.90
2019-03-02T20:55:35.627Z,7.90
2019-03-02T20:58:05.349Z,7.90
2019-03-02T21:00:34.991Z,7.90
2019-03-02T21:03:04.673Z,7.90
2019-03-02T21:05:34.823Z,7.90
2019-03-02T21:08:04.562Z,7.80
2019-03-02T21:10:34.267Z,7.90
2019-03-02T21:13:03.861Z,7.80
2019-03-02T21:15:35.282Z,7.80
2019-03-02T21:18:05.400Z,7.70
2019-03-02T21:20:36.593Z,7.70
2019-03-02T21:23:06.728Z,7.80
2019-03-02T21:25:36.455Z,7.70
2019-03-02T21:28:06.278Z,7.70
2019-03-02T21:30:36.174Z,7.60
2019-03-02T21:33:05.890Z,7.60
2019-03-02T21:35:35.623Z,7.60
2019-03-02T21:38:05.342Z,7.60
2019-03-02T21:40:35.099Z,7.70
2019-03-02T21:43:04.955Z,7.70
2019-03-02T21:45:34.675Z,7.70
2019-03-02T21:48:04.534Z,7.70
2019-03-02T21:50:34.326Z,7.70
2019-03-02T21:53:04.049Z,7.70
2019-03-02T21:55:33.822Z,7.70
2019-03-02T21:58:03.459Z,7.60
2019-03-02T22:00:33.139Z,7.50
2019-03-02T22:03:02.863Z,7.40
2019-03-02T22:05:32.444Z,7.30
2019-03-02T22:08:02.065Z,7.30
2019-03-02T22:10:37.880Z,7.30
2019-03-02T22:13:07.528Z,7.30
2019-03-02T22:15:37.295Z,7.30
2019-03-02T22:18:06.977Z,7.20
2019-03-02T22:20:36.705Z,7.20
2019-03-02T22:23:06.325Z,7.20
2019-03-02T22:25:35.951Z,7.10
2019-03-02T22:28:05.582Z,7.10
2019-03-02T22:30:35.157Z,7.00
2019-03-02T22:33:04.887Z,7.00
2019-03-02T22:35:34.527Z,6.90
2019-03-02T22:38:04.088Z,6.90
2019-03-02T22:40:33.722Z,6.90
2019-03-02T22:43:03.368Z,6.90
2019-03-02T22:45:33.010Z,6.80
2019-03-02T22:48:02.643Z,6.80
2019-03-02T22:50:32.254Z,6.70
2019-03-02T22:53:01.892Z,6.60
2019-03-02T22:55:31.572Z,6.60
2019-03-02T22:58:01.934Z,6.60
2019-03-02T23:01:08.113Z,6.60
2019-03-02T23:03:35.983Z,6.60
2019-03-02T23:06:08.527Z,6.60
2019-03-02T23:08:38.127Z,6.60
2019-03-02T23:11:07.863Z,6.60
2019-03-02T23:13:37.650Z,6.50
2019-03-02T23:16:07.274Z,6.60
2019-03-02T23:18:37.000Z,6.60
2019-03-02T23:21:06.586Z,6.60
2019-03-02T23:23:36.248Z,6.50
2019-03-02T23:26:05.869Z,6.40
2019-03-02T23:28:35.457Z,6.30
2019-03-02T23:31:05.082Z,6.20
2019-03-02T23:33:34.649Z,5.90
2019-03-02T23:36:04.344Z,5.80
2019-03-02T23:38:34.038Z,5.70
2019-03-02T23:41:03.827Z,5.50
2019-03-02T23:43:33.414Z,5.50
2019-03-02T23:46:03.019Z,5.40
2019-03-02T23:48:32.639Z,5.40
2019-03-02T23:51:02.266Z,5.40
2019-03-02T23:53:31.890Z,5.40
2019-03-02T23:56:01.451Z,5.40
2019-03-02T23:58:31.072Z,5.40
